DLH831 LFBO-EDDF
Flight info
| Callsign | DLH831 |
|---|---|
| Flight time | 1h 20m |
| Altitude | 34000 |
| Route | MEN DCT NINUN DCT LATAM DCT ETREK DCT LTP DCT SOPLO DCT OMASI DCT KINNI DCT SOSAL DCT KORED DCT BERSU N871 DITON DCT LADOL T163 EMPAX EMPAX5B |
| Aircraft | A388/J-SADE2E3FGHIJ3J4J5M1RWXY/LB1D1 |
Departure
| Time | 2026-05-06 11:26 |
|---|---|
| Airport | Toulouse-Blagnac Airport (LFBO) |
Arrival
| Time | 2026-05-06 12:46 |
|---|---|
| Airport | Frankfurt Main Airport (EDDF) |
| Time | Latitude | Longitude | Altitude | Speed | Heading |
|---|---|---|---|---|---|
| 2026-05-06 11:13 | 43.62310 | 1.35093 | 500 ft | 0 kts | 177° |
| 2026-05-06 11:14 | 43.62311 | 1.35093 | 500 ft | 1 kts | 177° |
| 2026-05-06 11:14 | 43.62320 | 1.35093 | 500 ft | 1 kts | 177° |
| 2026-05-06 11:14 | 43.62329 | 1.35092 | 500 ft | 1 kts | 177° |
| 2026-05-06 11:14 | 43.62338 | 1.35092 | 500 ft | 1 kts | 177° |
| 2026-05-06 11:15 | 43.62346 | 1.35090 | 500 ft | 1 kts | 167° |
| 2026-05-06 11:15 | 43.62354 | 1.35084 | 500 ft | 1 kts | 149° |
| 2026-05-06 11:15 | 43.62361 | 1.35075 | 500 ft | 1 kts | 132° |
| 2026-05-06 11:15 | 43.62365 | 1.35064 | 500 ft | 1 kts | 114° |
| 2026-05-06 11:16 | 43.62366 | 1.35052 | 500 ft | 1 kts | 99° |
| 2026-05-06 11:16 | 43.62367 | 1.35040 | 500 ft | 1 kts | 93° |
| 2026-05-06 11:16 | 43.62367 | 1.35031 | 500 ft | 1 kts | 90° |
| 2026-05-06 11:16 | 43.62367 | 1.35025 | 500 ft | 0 kts | 87° |
| 2026-05-06 11:20 | 43.62367 | 1.35046 | 500 ft | 5 kts | 87° |
| 2026-05-06 11:20 | 43.62370 | 1.35128 | 500 ft | 12 kts | 87° |
| 2026-05-06 11:21 | 43.62374 | 1.35265 | 500 ft | 14 kts | 88° |
| 2026-05-06 11:21 | 43.62377 | 1.35411 | 500 ft | 15 kts | 88° |
| 2026-05-06 11:21 | 43.62380 | 1.35540 | 499 ft | 10 kts | 88° |
| 2026-05-06 11:21 | 43.62342 | 1.35624 | 499 ft | 14 kts | 149° |
| 2026-05-06 11:22 | 43.62250 | 1.35705 | 499 ft | 19 kts | 141° |
| 2026-05-06 11:22 | 43.62176 | 1.35876 | 499 ft | 23 kts | 91° |
| 2026-05-06 11:22 | 43.62189 | 1.36041 | 499 ft | 17 kts | 94° |
| 2026-05-06 11:22 | 43.62180 | 1.36195 | 499 ft | 18 kts | 94° |
| 2026-05-06 11:23 | 43.62175 | 1.36366 | 499 ft | 20 kts | 93° |
| 2026-05-06 11:23 | 43.62167 | 1.36559 | 499 ft | 19 kts | 96° |
| 2026-05-06 11:23 | 43.62084 | 1.36703 | 499 ft | 21 kts | 143° |
| 2026-05-06 11:23 | 43.61986 | 1.36805 | 499 ft | 20 kts | 143° |
| 2026-05-06 11:24 | 43.61878 | 1.36918 | 500 ft | 21 kts | 143° |
| 2026-05-06 11:24 | 43.61821 | 1.37026 | 499 ft | 14 kts | 82° |
| 2026-05-06 11:24 | 43.61866 | 1.37129 | 499 ft | 12 kts | 51° |
| 2026-05-06 11:24 | 43.61921 | 1.37173 | 499 ft | 8 kts | 346° |
| 2026-05-06 11:25 | 43.61966 | 1.37141 | 487 ft | 0 kts | 322° |
| 2026-05-06 11:25 | 43.61968 | 1.37139 | 487 ft | 3 kts | 322° |
| 2026-05-06 11:25 | 43.62146 | 1.36950 | 488 ft | 72 kts | 323° |
| 2026-05-06 11:25 | 43.62726 | 1.36349 | 489 ft | 131 kts | 323° |
| 2026-05-06 11:26 | 43.63531 | 1.35494 | 640 ft | 152 kts | 322° |
| 2026-05-06 11:26 | 43.64431 | 1.34566 | 969 ft | 170 kts | 322° |
| 2026-05-06 11:26 | 43.65428 | 1.33581 | 1401 ft | 181 kts | 321° |
| 2026-05-06 11:26 | 43.66485 | 1.32547 | 1842 ft | 190 kts | 319° |
| 2026-05-06 11:27 | 43.67574 | 1.31475 | 2170 ft | 199 kts | 320° |
| 2026-05-06 11:27 | 43.68737 | 1.30346 | 2531 ft | 204 kts | 323° |
| 2026-05-06 11:27 | 43.70119 | 1.29591 | 2842 ft | 235 kts | 345° |
| 2026-05-06 11:27 | 43.71853 | 1.29779 | 3247 ft | 266 kts | 14° |
| 2026-05-06 11:28 | 43.73455 | 1.31155 | 3545 ft | 279 kts | 43° |
| 2026-05-06 11:28 | 43.74529 | 1.33395 | 3898 ft | 285 kts | 63° |
| 2026-05-06 11:28 | 43.75284 | 1.35935 | 4230 ft | 285 kts | 68° |
| 2026-05-06 11:28 | 43.75983 | 1.38512 | 4552 ft | 288 kts | 67° |
| 2026-05-06 11:29 | 43.76774 | 1.41068 | 4868 ft | 293 kts | 63° |
| 2026-05-06 11:29 | 43.77667 | 1.43605 | 5802 ft | 290 kts | 62° |
| 2026-05-06 11:29 | 43.78589 | 1.46087 | 6967 ft | 291 kts | 61° |
| 2026-05-06 11:29 | 43.79542 | 1.48599 | 7928 ft | 298 kts | 60° |
| 2026-05-06 11:30 | 43.80511 | 1.51147 | 8954 ft | 300 kts | 61° |
| 2026-05-06 11:30 | 43.81484 | 1.53728 | 9980 ft | 304 kts | 61° |
| 2026-05-06 11:30 | 43.82379 | 1.56472 | 10498 ft | 321 kts | 70° |
| 2026-05-06 11:30 | 43.83070 | 1.59506 | 10955 ft | 340 kts | 73° |
| 2026-05-06 11:31 | 43.83740 | 1.62754 | 11355 ft | 359 kts | 73° |
| 2026-05-06 11:31 | 43.84429 | 1.66093 | 12193 ft | 362 kts | 73° |
| 2026-05-06 11:31 | 43.85130 | 1.69425 | 13000 ft | 367 kts | 73° |
| 2026-05-06 11:31 | 43.85868 | 1.72873 | 13828 ft | 371 kts | 73° |
| 2026-05-06 11:32 | 43.86599 | 1.76269 | 14600 ft | 374 kts | 73° |
| 2026-05-06 11:32 | 43.87348 | 1.79738 | 15311 ft | 379 kts | 72° |
| 2026-05-06 11:32 | 43.88107 | 1.83257 | 16055 ft | 382 kts | 73° |
| 2026-05-06 11:32 | 43.88871 | 1.86802 | 16770 ft | 386 kts | 73° |
| 2026-05-06 11:33 | 43.89642 | 1.90392 | 17479 ft | 390 kts | 73° |
| 2026-05-06 11:33 | 43.90419 | 1.94014 | 18193 ft | 394 kts | 72° |
| 2026-05-06 11:33 | 43.91202 | 1.97672 | 18782 ft | 398 kts | 72° |
| 2026-05-06 11:33 | 43.92213 | 2.01257 | 19361 ft | 400 kts | 62° |
| 2026-05-06 11:34 | 43.93660 | 2.04554 | 19953 ft | 402 kts | 51° |
| 2026-05-06 11:34 | 43.95453 | 2.07535 | 20511 ft | 403 kts | 46° |
| 2026-05-06 11:34 | 43.97295 | 2.10500 | 21095 ft | 408 kts | 47° |
| 2026-05-06 11:34 | 43.99140 | 2.13514 | 21658 ft | 411 kts | 47° |
| 2026-05-06 11:35 | 44.00369 | 2.15533 | 22036 ft | 413 kts | 47° |
| 2026-05-06 11:35 | 44.02223 | 2.18593 | 22692 ft | 414 kts | 47° |
| 2026-05-06 11:35 | 44.04604 | 2.22628 | 23943 ft | 405 kts | 47° |
| 2026-05-06 11:35 | 44.06452 | 2.25652 | 24123 ft | 417 kts | 46° |
| 2026-05-06 11:36 | 44.08382 | 2.28761 | 24291 ft | 430 kts | 46° |
| 2026-05-06 11:36 | 44.10349 | 2.31949 | 24697 ft | 437 kts | 46° |
| 2026-05-06 11:36 | 44.12330 | 2.35187 | 25121 ft | 441 kts | 47° |
| 2026-05-06 11:36 | 44.14319 | 2.38459 | 25573 ft | 445 kts | 47° |
| 2026-05-06 11:37 | 44.16329 | 2.41774 | 26051 ft | 450 kts | 47° |
| 2026-05-06 11:37 | 44.18360 | 2.45130 | 26534 ft | 455 kts | 47° |
| 2026-05-06 11:37 | 44.19719 | 2.47378 | 26881 ft | 458 kts | 47° |
| 2026-05-06 11:37 | 44.21775 | 2.50783 | 27535 ft | 460 kts | 48° |
| 2026-05-06 11:38 | 44.23854 | 2.54229 | 27998 ft | 467 kts | 48° |
| 2026-05-06 11:38 | 44.25951 | 2.57709 | 28512 ft | 472 kts | 48° |
| 2026-05-06 11:38 | 44.28077 | 2.61239 | 29021 ft | 477 kts | 48° |
| 2026-05-06 11:38 | 44.30223 | 2.64808 | 29543 ft | 483 kts | 48° |
| 2026-05-06 11:39 | 44.32392 | 2.68420 | 30036 ft | 489 kts | 49° |
| 2026-05-06 11:39 | 44.34594 | 2.72091 | 30447 ft | 494 kts | 49° |
| 2026-05-06 11:39 | 44.36776 | 2.75736 | 30977 ft | 497 kts | 49° |
| 2026-05-06 11:39 | 44.38999 | 2.79453 | 31469 ft | 501 kts | 49° |
| 2026-05-06 11:40 | 44.41226 | 2.83181 | 32112 ft | 500 kts | 49° |
| 2026-05-06 11:40 | 44.43467 | 2.86937 | 32537 ft | 505 kts | 49° |
| 2026-05-06 11:40 | 44.45726 | 2.90729 | 33000 ft | 509 kts | 49° |
| 2026-05-06 11:40 | 44.48004 | 2.94558 | 33475 ft | 513 kts | 50° |
| 2026-05-06 11:41 | 44.50298 | 2.98419 | 33913 ft | 518 kts | 50° |
| 2026-05-06 11:41 | 44.54958 | 3.06276 | 33926 ft | 528 kts | 50° |
| 2026-05-06 11:42 | 44.59653 | 3.14263 | 33939 ft | 528 kts | 53° |
| 2026-05-06 11:42 | 44.63532 | 3.22970 | 33929 ft | 526 kts | 62° |
| 2026-05-06 11:43 | 44.67129 | 3.31935 | 33926 ft | 527 kts | 61° |
| 2026-05-06 11:43 | 44.70738 | 3.40913 | 33928 ft | 527 kts | 61° |
| 2026-05-06 11:44 | 44.76119 | 3.54410 | 33918 ft | 527 kts | 61° |
| 2026-05-06 11:44 | 44.79689 | 3.63410 | 33920 ft | 526 kts | 62° |
| 2026-05-06 11:45 | 44.83226 | 3.72353 | 33912 ft | 526 kts | 62° |
| 2026-05-06 11:45 | 44.86784 | 3.81376 | 33899 ft | 526 kts | 62° |
| 2026-05-06 11:46 | 44.90337 | 3.90419 | 33886 ft | 528 kts | 62° |
| 2026-05-06 11:46 | 44.93890 | 3.99491 | 33913 ft | 528 kts | 62° |
| 2026-05-06 11:47 | 44.97439 | 4.08580 | 33914 ft | 528 kts | 62° |
| 2026-05-06 11:47 | 45.00975 | 4.17669 | 33919 ft | 528 kts | 62° |
| 2026-05-06 11:48 | 45.04514 | 4.26794 | 33876 ft | 530 kts | 63° |
| 2026-05-06 11:48 | 45.08038 | 4.35909 | 33892 ft | 531 kts | 63° |
| 2026-05-06 11:49 | 45.11580 | 4.45103 | 33912 ft | 532 kts | 63° |
| 2026-05-06 11:49 | 45.15124 | 4.54331 | 33923 ft | 533 kts | 63° |
| 2026-05-06 11:50 | 45.18664 | 4.63582 | 33896 ft | 534 kts | 63° |
| 2026-05-06 11:50 | 45.22204 | 4.72865 | 33893 ft | 536 kts | 63° |
| 2026-05-06 11:51 | 45.25745 | 4.82180 | 33907 ft | 537 kts | 63° |
| 2026-05-06 11:51 | 45.29289 | 4.91533 | 33951 ft | 538 kts | 63° |
| 2026-05-06 11:52 | 45.32807 | 5.00851 | 33956 ft | 538 kts | 63° |
| 2026-05-06 11:52 | 45.36346 | 5.10256 | 33934 ft | 539 kts | 64° |
| 2026-05-06 11:53 | 45.39879 | 5.19678 | 33946 ft | 540 kts | 64° |
| 2026-05-06 11:53 | 45.43409 | 5.29124 | 33959 ft | 541 kts | 64° |
| 2026-05-06 11:54 | 45.46967 | 5.38556 | 33975 ft | 541 kts | 60° |
| 2026-05-06 11:54 | 45.51544 | 5.47060 | 33935 ft | 543 kts | 46° |
| 2026-05-06 11:55 | 45.57130 | 5.54329 | 33945 ft | 543 kts | 42° |
| 2026-05-06 11:55 | 45.62748 | 5.61539 | 33945 ft | 543 kts | 42° |
| 2026-05-06 11:56 | 45.68364 | 5.68756 | 33977 ft | 543 kts | 42° |
| 2026-05-06 11:56 | 45.73938 | 5.75925 | 33952 ft | 542 kts | 42° |
| 2026-05-06 11:57 | 45.79555 | 5.83142 | 33954 ft | 542 kts | 42° |
| 2026-05-06 11:57 | 45.85164 | 5.90362 | 33976 ft | 542 kts | 42° |
| 2026-05-06 11:58 | 45.90777 | 5.97612 | 33937 ft | 543 kts | 42° |
| 2026-05-06 11:58 | 45.96393 | 6.04887 | 33939 ft | 543 kts | 43° |
| 2026-05-06 11:59 | 46.02001 | 6.12173 | 33968 ft | 543 kts | 43° |
| 2026-05-06 11:59 | 46.07597 | 6.19463 | 33968 ft | 541 kts | 43° |
| 2026-05-06 12:00 | 46.13073 | 6.26892 | 33935 ft | 540 kts | 45° |
| 2026-05-06 12:00 | 46.18341 | 6.34503 | 33927 ft | 539 kts | 46° |
| 2026-05-06 12:01 | 46.23656 | 6.42135 | 33898 ft | 539 kts | 45° |
| 2026-05-06 12:01 | 46.28986 | 6.49758 | 33901 ft | 539 kts | 45° |
| 2026-05-06 12:02 | 46.34320 | 6.57401 | 33896 ft | 539 kts | 45° |
| 2026-05-06 12:02 | 46.39641 | 6.65048 | 33897 ft | 539 kts | 46° |
| 2026-05-06 12:03 | 46.44954 | 6.72709 | 33903 ft | 538 kts | 46° |
| 2026-05-06 12:03 | 46.50257 | 6.80377 | 33885 ft | 538 kts | 46° |
| 2026-05-06 12:04 | 46.55532 | 6.88076 | 33844 ft | 537 kts | 49° |
| 2026-05-06 12:04 | 46.60221 | 6.96406 | 33862 ft | 536 kts | 53° |
| 2026-05-06 12:05 | 46.64919 | 7.04840 | 33864 ft | 537 kts | 53° |
| 2026-05-06 12:05 | 46.69620 | 7.13316 | 33868 ft | 538 kts | 53° |
| 2026-05-06 12:06 | 46.74307 | 7.21808 | 33878 ft | 538 kts | 53° |
| 2026-05-06 12:06 | 46.78994 | 7.30331 | 33886 ft | 539 kts | 53° |
| 2026-05-06 12:07 | 46.83680 | 7.38877 | 33864 ft | 539 kts | 53° |
| 2026-05-06 12:07 | 46.88365 | 7.47458 | 33873 ft | 540 kts | 54° |
| 2026-05-06 12:08 | 46.93045 | 7.56067 | 33864 ft | 541 kts | 54° |
| 2026-05-06 12:08 | 46.97705 | 7.64692 | 33858 ft | 541 kts | 54° |
| 2026-05-06 12:09 | 47.02384 | 7.73336 | 33865 ft | 541 kts | 54° |
| 2026-05-06 12:09 | 47.07025 | 7.81927 | 33965 ft | 539 kts | 54° |
| 2026-05-06 12:10 | 47.09361 | 7.86258 | 33858 ft | 542 kts | 54° |
| 2026-05-06 12:10 | 47.11691 | 7.90608 | 33892 ft | 542 kts | 54° |
| 2026-05-06 12:10 | 47.15940 | 7.99710 | 33844 ft | 539 kts | 62° |
| 2026-05-06 12:11 | 47.19928 | 8.09064 | 33860 ft | 542 kts | 61° |
| 2026-05-06 12:11 | 47.23936 | 8.18460 | 33867 ft | 542 kts | 62° |
| 2026-05-06 12:12 | 47.27980 | 8.27816 | 33860 ft | 544 kts | 56° |
| 2026-05-06 12:12 | 47.30483 | 8.32007 | 33825 ft | 548 kts | 44° |
| 2026-05-06 12:12 | 47.33474 | 8.35508 | 33830 ft | 550 kts | 33° |
| 2026-05-06 12:13 | 47.40302 | 8.40600 | 33836 ft | 551 kts | 24° |
| 2026-05-06 12:13 | 47.47268 | 8.45399 | 33827 ft | 552 kts | 24° |
| 2026-05-06 12:14 | 47.54163 | 8.50261 | 33836 ft | 553 kts | 25° |
| 2026-05-06 12:14 | 47.61098 | 8.55200 | 33844 ft | 553 kts | 25° |
| 2026-05-06 12:15 | 47.68046 | 8.60164 | 33847 ft | 553 kts | 25° |
| 2026-05-06 12:15 | 47.74984 | 8.65137 | 33857 ft | 554 kts | 25° |
| 2026-05-06 12:16 | 47.81927 | 8.70126 | 33857 ft | 554 kts | 25° |
| 2026-05-06 12:16 | 47.88867 | 8.75127 | 33855 ft | 553 kts | 25° |
| 2026-05-06 12:17 | 47.95743 | 8.80099 | 33839 ft | 552 kts | 25° |
| 2026-05-06 12:17 | 48.02650 | 8.85108 | 33833 ft | 551 kts | 25° |
| 2026-05-06 12:18 | 48.09546 | 8.90124 | 33821 ft | 551 kts | 25° |
| 2026-05-06 12:18 | 48.16592 | 8.94460 | 33832 ft | 546 kts | 13° |
| 2026-05-06 12:19 | 48.20258 | 8.95722 | 33673 ft | 533 kts | 7° |
| 2026-05-06 12:19 | 48.23897 | 8.96392 | 33292 ft | 522 kts | 2° |
| 2026-05-06 12:19 | 48.27488 | 8.96921 | 32882 ft | 516 kts | 3° |
| 2026-05-06 12:19 | 48.31043 | 8.97476 | 32482 ft | 511 kts | 3° |
| 2026-05-06 12:20 | 48.34563 | 8.98027 | 32014 ft | 506 kts | 3° |
| 2026-05-06 12:20 | 48.38053 | 8.98569 | 31493 ft | 499 kts | 3° |
| 2026-05-06 12:20 | 48.41485 | 8.99097 | 31003 ft | 493 kts | 4° |
| 2026-05-06 12:20 | 48.44870 | 8.99615 | 30499 ft | 486 kts | 4° |
| 2026-05-06 12:21 | 48.48173 | 9.00118 | 30018 ft | 481 kts | 4° |
| 2026-05-06 12:21 | 48.51493 | 9.00624 | 29469 ft | 477 kts | 4° |
| 2026-05-06 12:21 | 48.54775 | 9.01125 | 28883 ft | 473 kts | 4° |
| 2026-05-06 12:21 | 48.58034 | 9.01623 | 28321 ft | 468 kts | 4° |
| 2026-05-06 12:22 | 48.61257 | 9.02117 | 27776 ft | 463 kts | 4° |
| 2026-05-06 12:22 | 48.64439 | 9.02733 | 27235 ft | 458 kts | 8° |
| 2026-05-06 12:22 | 48.67575 | 9.03500 | 26698 ft | 454 kts | 8° |
| 2026-05-06 12:22 | 48.70678 | 9.04240 | 26255 ft | 449 kts | 8° |
| 2026-05-06 12:23 | 48.73768 | 9.04972 | 25819 ft | 445 kts | 8° |
| 2026-05-06 12:23 | 48.76814 | 9.05694 | 25323 ft | 440 kts | 8° |
| 2026-05-06 12:23 | 48.79790 | 9.06403 | 24837 ft | 436 kts | 8° |
| 2026-05-06 12:23 | 48.82815 | 9.07127 | 24352 ft | 433 kts | 8° |
| 2026-05-06 12:24 | 48.85785 | 9.07838 | 23884 ft | 430 kts | 8° |
| 2026-05-06 12:24 | 48.88730 | 9.08510 | 23415 ft | 426 kts | 6° |
| 2026-05-06 12:24 | 48.91677 | 9.08913 | 22869 ft | 423 kts | 5° |
| 2026-05-06 12:24 | 48.94569 | 9.09317 | 22337 ft | 420 kts | 5° |
| 2026-05-06 12:25 | 48.97468 | 9.09733 | 21803 ft | 416 kts | 5° |
| 2026-05-06 12:25 | 49.00333 | 9.10147 | 21279 ft | 411 kts | 5° |
| 2026-05-06 12:25 | 49.03177 | 9.10556 | 20778 ft | 409 kts | 5° |
| 2026-05-06 12:25 | 49.06007 | 9.10961 | 20259 ft | 407 kts | 5° |
| 2026-05-06 12:26 | 49.08815 | 9.11361 | 19765 ft | 404 kts | 5° |
| 2026-05-06 12:26 | 49.11601 | 9.11758 | 19268 ft | 401 kts | 5° |
| 2026-05-06 12:26 | 49.14372 | 9.12154 | 18784 ft | 398 kts | 5° |
| 2026-05-06 12:26 | 49.17129 | 9.12548 | 18304 ft | 396 kts | 5° |
| 2026-05-06 12:27 | 49.19866 | 9.12940 | 17797 ft | 394 kts | 5° |
| 2026-05-06 12:27 | 49.21668 | 9.13198 | 17434 ft | 391 kts | 5° |
| 2026-05-06 12:27 | 49.24359 | 9.13584 | 16959 ft | 388 kts | 5° |
| 2026-05-06 12:27 | 49.27915 | 9.14109 | 16415 ft | 377 kts | 6° |
| 2026-05-06 12:28 | 49.30449 | 9.14882 | 16031 ft | 368 kts | 13° |
| 2026-05-06 12:28 | 49.32913 | 9.15786 | 15653 ft | 360 kts | 13° |
| 2026-05-06 12:28 | 49.34517 | 9.16355 | 15403 ft | 355 kts | 12° |
| 2026-05-06 12:28 | 49.37669 | 9.17460 | 14905 ft | 347 kts | 12° |
| 2026-05-06 12:29 | 49.40003 | 9.18282 | 14542 ft | 341 kts | 12° |
| 2026-05-06 12:29 | 49.42294 | 9.19092 | 14186 ft | 336 kts | 12° |
| 2026-05-06 12:29 | 49.43833 | 9.19638 | 13933 ft | 333 kts | 12° |
| 2026-05-06 12:29 | 49.46074 | 9.20434 | 13576 ft | 329 kts | 12° |
| 2026-05-06 12:30 | 49.48269 | 9.21215 | 13182 ft | 326 kts | 12° |
| 2026-05-06 12:30 | 49.50470 | 9.21977 | 12784 ft | 322 kts | 8° |
| 2026-05-06 12:30 | 49.52672 | 9.21900 | 12388 ft | 315 kts | 344° |
| 2026-05-06 12:30 | 49.54781 | 9.20950 | 11992 ft | 310 kts | 341° |
| 2026-05-06 12:31 | 49.56840 | 9.20185 | 11614 ft | 308 kts | 349° |
| 2026-05-06 12:31 | 49.58988 | 9.19918 | 11142 ft | 309 kts | 354° |
| 2026-05-06 12:31 | 49.61121 | 9.19691 | 10765 ft | 306 kts | 355° |
| 2026-05-06 12:31 | 49.63245 | 9.19788 | 10392 ft | 304 kts | 3° |
| 2026-05-06 12:32 | 49.65349 | 9.20106 | 10032 ft | 303 kts | 4° |
| 2026-05-06 12:32 | 49.67430 | 9.20424 | 9822 ft | 298 kts | 4° |
| 2026-05-06 12:32 | 49.69509 | 9.20742 | 9550 ft | 301 kts | 4° |
| 2026-05-06 12:32 | 49.71592 | 9.21059 | 9160 ft | 299 kts | 4° |
| 2026-05-06 12:33 | 49.73665 | 9.21381 | 8757 ft | 297 kts | 4° |
| 2026-05-06 12:33 | 49.75691 | 9.21698 | 8368 ft | 295 kts | 4° |
| 2026-05-06 12:33 | 49.77739 | 9.22017 | 7997 ft | 293 kts | 4° |
| 2026-05-06 12:33 | 49.79750 | 9.22321 | 7629 ft | 290 kts | 3° |
| 2026-05-06 12:34 | 49.81765 | 9.22640 | 7236 ft | 292 kts | 4° |
| 2026-05-06 12:34 | 49.83769 | 9.22914 | 6882 ft | 286 kts | 358° |
| 2026-05-06 12:34 | 49.85710 | 9.22399 | 6545 ft | 283 kts | 343° |
| 2026-05-06 12:34 | 49.87613 | 9.21665 | 6202 ft | 281 kts | 344° |
| 2026-05-06 12:35 | 49.89511 | 9.20943 | 5845 ft | 280 kts | 343° |
| 2026-05-06 12:35 | 49.91411 | 9.20240 | 5453 ft | 281 kts | 343° |
| 2026-05-06 12:35 | 49.93303 | 9.19505 | 5077 ft | 279 kts | 343° |
| 2026-05-06 12:35 | 49.95154 | 9.18794 | 4784 ft | 278 kts | 344° |
| 2026-05-06 12:36 | 49.97024 | 9.18081 | 4539 ft | 275 kts | 344° |
| 2026-05-06 12:36 | 49.98860 | 9.17381 | 4271 ft | 267 kts | 343° |
| 2026-05-06 12:36 | 50.00644 | 9.16707 | 4027 ft | 261 kts | 345° |
| 2026-05-06 12:36 | 50.02368 | 9.16052 | 3990 ft | 252 kts | 343° |
| 2026-05-06 12:37 | 50.04075 | 9.15412 | 3994 ft | 254 kts | 344° |
| 2026-05-06 12:37 | 50.05781 | 9.14739 | 3991 ft | 253 kts | 343° |
| 2026-05-06 12:37 | 50.07484 | 9.14072 | 3977 ft | 252 kts | 343° |
| 2026-05-06 12:37 | 50.09203 | 9.13440 | 3981 ft | 256 kts | 343° |
| 2026-05-06 12:38 | 50.10936 | 9.12795 | 3982 ft | 255 kts | 343° |
| 2026-05-06 12:38 | 50.12630 | 9.12108 | 3980 ft | 248 kts | 336° |
| 2026-05-06 12:38 | 50.14015 | 9.10592 | 3984 ft | 243 kts | 306° |
| 2026-05-06 12:38 | 50.14725 | 9.08303 | 3988 ft | 229 kts | 283° |
| 2026-05-06 12:39 | 50.14907 | 9.05869 | 3984 ft | 225 kts | 263° |
| 2026-05-06 12:39 | 50.14616 | 9.03493 | 4000 ft | 221 kts | 252° |
| 2026-05-06 12:39 | 50.14139 | 9.01253 | 3984 ft | 214 kts | 248° |
| 2026-05-06 12:39 | 50.13632 | 8.99127 | 3986 ft | 208 kts | 248° |
| 2026-05-06 12:40 | 50.13132 | 8.97016 | 3988 ft | 208 kts | 249° |
| 2026-05-06 12:40 | 50.12632 | 8.94908 | 3990 ft | 206 kts | 248° |
| 2026-05-06 12:40 | 50.12133 | 8.92812 | 3992 ft | 207 kts | 248° |
| 2026-05-06 12:40 | 50.11635 | 8.90712 | 3989 ft | 205 kts | 248° |
| 2026-05-06 12:41 | 50.11137 | 8.88618 | 3989 ft | 200 kts | 249° |
| 2026-05-06 12:41 | 50.10673 | 8.86660 | 3994 ft | 186 kts | 248° |
| 2026-05-06 12:41 | 50.10223 | 8.84770 | 3913 ft | 187 kts | 249° |
| 2026-05-06 12:41 | 50.09770 | 8.82866 | 3656 ft | 181 kts | 248° |
| 2026-05-06 12:42 | 50.09355 | 8.81117 | 3418 ft | 170 kts | 249° |
| 2026-05-06 12:42 | 50.08942 | 8.79382 | 3178 ft | 169 kts | 248° |
| 2026-05-06 12:42 | 50.08539 | 8.77694 | 2953 ft | 167 kts | 248° |
| 2026-05-06 12:42 | 50.08138 | 8.76001 | 2732 ft | 166 kts | 248° |
| 2026-05-06 12:43 | 50.07744 | 8.74347 | 2507 ft | 157 kts | 248° |
| 2026-05-06 12:43 | 50.07382 | 8.72823 | 2310 ft | 145 kts | 249° |
| 2026-05-06 12:43 | 50.07026 | 8.71335 | 2115 ft | 145 kts | 248° |
| 2026-05-06 12:43 | 50.06685 | 8.69902 | 1914 ft | 137 kts | 248° |
| 2026-05-06 12:44 | 50.06356 | 8.68518 | 1743 ft | 136 kts | 247° |
| 2026-05-06 12:44 | 50.06020 | 8.67110 | 1553 ft | 140 kts | 246° |
| 2026-05-06 12:44 | 50.05683 | 8.65696 | 1379 ft | 139 kts | 247° |
| 2026-05-06 12:44 | 50.05357 | 8.64298 | 1189 ft | 142 kts | 245° |
| 2026-05-06 12:45 | 50.05034 | 8.62824 | 1075 ft | 143 kts | 244° |
| 2026-05-06 12:45 | 50.04656 | 8.61375 | 887 ft | 146 kts | 243° |
| 2026-05-06 12:45 | 50.03969 | 8.58478 | 426 ft | 144 kts | 244° |
| 2026-05-06 12:46 | 50.03646 | 8.57092 | 372 ft | 117 kts | 242° |
| 2026-05-06 12:46 | 50.03417 | 8.56198 | 366 ft | 56 kts | 250° |
| 2026-05-06 12:46 | 50.03304 | 8.55735 | 363 ft | 36 kts | 242° |
| 2026-05-06 12:46 | 50.03187 | 8.55514 | 363 ft | 19 kts | 221° |
| 2026-05-06 12:47 | 50.03164 | 8.55484 | 361 ft | 0 kts | 218° |
| 2026-05-06 12:48 | 50.03145 | 8.55460 | 357 ft | 6 kts | 219° |
| 2026-05-06 12:48 | 50.03111 | 8.55417 | 364 ft | 7 kts | 219° |
| 2026-05-06 12:48 | 50.03069 | 8.55362 | 363 ft | 9 kts | 220° |
| 2026-05-06 12:48 | 50.03014 | 8.55282 | 363 ft | 9 kts | 232° |
| 2026-05-06 12:49 | 50.02982 | 8.55164 | 355 ft | 14 kts | 250° |
| 2026-05-06 12:49 | 50.02957 | 8.55059 | 360 ft | 11 kts | 249° |
| 2026-05-06 12:49 | 50.02926 | 8.54930 | 356 ft | 13 kts | 249° |
| 2026-05-06 12:49 | 50.02889 | 8.54825 | 357 ft | 10 kts | 208° |
| 2026-05-06 12:50 | 50.02841 | 8.54831 | 354 ft | 7 kts | 144° |
| 2026-05-06 12:50 | 50.02825 | 8.54888 | 354 ft | 7 kts | 84° |
| 2026-05-06 12:50 | 50.02842 | 8.54970 | 353 ft | 9 kts | 69° |
| 2026-05-06 12:50 | 50.02862 | 8.55056 | 358 ft | 8 kts | 70° |
| 2026-05-06 12:51 | 50.02883 | 8.55143 | 357 ft | 10 kts | 70° |
| 2026-05-06 12:51 | 50.02908 | 8.55249 | 358 ft | 12 kts | 67° |
| 2026-05-06 12:51 | 50.02949 | 8.55376 | 364 ft | 14 kts | 62° |
| 2026-05-06 12:51 | 50.02984 | 8.55496 | 359 ft | 11 kts | 69° |
| 2026-05-06 12:52 | 50.03009 | 8.55628 | 357 ft | 7 kts | 79° |
| 2026-05-06 12:52 | 50.03020 | 8.55719 | 356 ft | 8 kts | 79° |
| 2026-05-06 12:52 | 50.03035 | 8.55799 | 360 ft | 7 kts | 69° |
| 2026-05-06 12:52 | 50.03053 | 8.55873 | 357 ft | 8 kts | 69° |
| 2026-05-06 12:53 | 50.03076 | 8.55968 | 357 ft | 11 kts | 69° |
| 2026-05-06 12:53 | 50.03098 | 8.56056 | 357 ft | 9 kts | 69° |
| 2026-05-06 12:53 | 50.03110 | 8.56106 | 361 ft | 6 kts | 69° |
| 2026-05-06 12:53 | 50.03129 | 8.56183 | 362 ft | 9 kts | 65° |
| 2026-05-06 12:54 | 50.03155 | 8.56278 | 362 ft | 9 kts | 69° |
| 2026-05-06 12:54 | 50.03184 | 8.56395 | 362 ft | 13 kts | 69° |
| 2026-05-06 12:54 | 50.03206 | 8.56485 | 365 ft | 10 kts | 69° |
| 2026-05-06 12:54 | 50.03226 | 8.56566 | 365 ft | 6 kts | 69° |
| 2026-05-06 12:55 | 50.03234 | 8.56598 | 369 ft | 5 kts | 69° |
| 2026-05-06 12:55 | 50.03243 | 8.56659 | 367 ft | 8 kts | 87° |
| 2026-05-06 12:55 | 50.03226 | 8.56721 | 370 ft | 5 kts | 160° |
| 2026-05-06 12:55 | 50.03165 | 8.56750 | 365 ft | 15 kts | 162° |
| 2026-05-06 12:56 | 50.03070 | 8.56806 | 368 ft | 11 kts | 157° |